createdAt,value
2023-04-16T00:00:16.471Z,2.10
2023-04-16T00:05:21.080Z,3.47
2023-04-16T00:10:26.559Z,1.67
2023-04-16T00:15:29.715Z,2.87
2023-04-16T00:20:35.657Z,3.60
2023-04-16T00:25:39.049Z,5.60
2023-04-16T00:30:45.787Z,3.40
2023-04-16T00:35:51.844Z,4.60
2023-04-16T00:40:55.179Z,8.67
2023-04-16T00:45:59.335Z,4.57
2023-04-16T00:51:07.161Z,6.50
2023-04-16T00:56:11.506Z,4.93
2023-04-16T01:01:15.137Z,6.00
2023-04-16T01:06:19.953Z,6.33
2023-04-16T01:11:23.091Z,6.47
2023-04-16T01:16:26.706Z,5.43
2023-04-16T01:21:31.286Z,6.10
2023-04-16T01:26:35.129Z,5.80
2023-04-16T01:31:38.251Z,5.53
2023-04-16T01:36:59.889Z,5.60
2023-04-16T01:42:03.853Z,4.67
2023-04-16T01:47:06.907Z,5.27
2023-04-16T01:52:11.306Z,5.33
2023-04-16T01:57:14.442Z,6.10
2023-04-16T02:02:17.764Z,6.73
2023-04-16T02:07:22.384Z,5.67
2023-04-16T02:12:25.572Z,4.20
2023-04-16T02:17:28.709Z,5.50
2023-04-16T02:22:45.041Z,4.30
2023-04-16T02:27:52.032Z,4.27
2023-04-16T02:33:27.336Z,3.40
2023-04-16T02:38:38.704Z,4.57
2023-04-16T02:43:42.336Z,2.60
2023-04-16T02:48:45.424Z,3.33
2023-04-16T02:53:50.821Z,4.43
2023-04-16T02:58:53.903Z,3.60
2023-04-16T03:03:57.318Z,3.57
2023-04-16T03:09:01.778Z,4.43
2023-04-16T03:14:04.889Z,6.10
2023-04-16T03:19:08.253Z,6.03
2023-04-16T03:24:14.404Z,6.73
2023-04-16T03:29:17.508Z,7.60
2023-04-16T03:34:21.342Z,7.97
2023-04-16T03:39:26.341Z,7.27
2023-04-16T03:44:29.500Z,6.03
2023-04-16T03:49:32.721Z,6.60
2023-04-16T03:54:37.705Z,6.83
2023-04-16T04:00:00.223Z,7.00
2023-04-16T04:05:06.877Z,7.63
2023-04-16T04:10:12.175Z,8.00
2023-04-16T04:15:18.016Z,7.20
2023-04-16T04:20:21.255Z,6.10
2023-04-16T04:25:26.649Z,4.73
2023-04-16T04:30:30.064Z,5.77
2023-04-16T04:35:33.369Z,5.10
2023-04-16T04:40:39.694Z,3.73
2023-04-16T04:45:44.695Z,3.83
2023-04-16T04:50:48.166Z,5.77
2023-04-16T04:55:55.684Z,4.43
2023-04-16T05:01:01.961Z,5.40
2023-04-16T05:06:05.574Z,5.93
2023-04-16T05:11:10.016Z,3.90
2023-04-16T05:16:13.213Z,5.13
2023-04-16T05:21:16.395Z,4.60
2023-04-16T05:26:21.186Z,4.17
2023-04-16T05:31:24.378Z,4.60
2023-04-16T05:36:27.477Z,5.80
2023-04-16T05:41:32.003Z,4.33
2023-04-16T05:46:35.281Z,3.83
2023-04-16T05:51:38.535Z,3.87
2023-04-16T05:56:42.988Z,5.17
2023-04-16T06:01:46.359Z,4.13
2023-04-16T06:06:49.460Z,6.33
2023-04-16T06:11:54.222Z,5.10
2023-04-16T06:16:57.399Z,5.27
2023-04-16T06:22:00.624Z,4.10
2023-04-16T06:27:05.240Z,3.37
2023-04-16T06:32:09.041Z,4.17
2023-04-16T06:37:12.184Z,4.27
2023-04-16T06:42:16.682Z,4.27
2023-04-16T06:47:19.851Z,3.93
2023-04-16T06:52:23.017Z,4.37
2023-04-16T06:57:27.475Z,4.57
2023-04-16T07:02:30.686Z,4.73
2023-04-16T07:07:33.937Z,4.10
2023-04-16T07:12:38.463Z,4.63
2023-04-16T07:17:41.574Z,5.27
2023-04-16T07:22:44.765Z,5.93
2023-04-16T07:27:49.320Z,4.37
2023-04-16T07:32:52.711Z,5.43
2023-04-16T07:37:55.922Z,6.43
2023-04-16T07:43:00.406Z,4.13
2023-04-16T07:48:03.586Z,5.57
2023-04-16T07:53:07.636Z,4.83
2023-04-16T07:58:12.089Z,4.77
2023-04-16T08:03:16.126Z,5.83
2023-04-16T08:08:20.295Z,4.87
2023-04-16T08:13:25.373Z,5.50
2023-04-16T08:18:28.500Z,4.97
2023-04-16T08:23:31.568Z,4.80
2023-04-16T08:28:36.264Z,4.60
2023-04-16T08:33:39.385Z,4.03
2023-04-16T08:38:42.680Z,4.60
2023-04-16T08:43:51.529Z,4.33
2023-04-16T08:48:55.952Z,4.10
2023-04-16T08:54:04.350Z,3.80
2023-04-16T08:59:10.337Z,5.17
2023-04-16T09:04:15.024Z,4.80
2023-04-16T09:09:19.231Z,4.00
2023-04-16T09:14:23.661Z,3.93
2023-04-16T09:19:26.805Z,4.53
2023-04-16T09:24:31.009Z,4.13
2023-04-16T09:29:39.950Z,4.13
2023-04-16T09:34:57.805Z,4.57
2023-04-16T09:40:02.038Z,3.63
2023-04-16T09:45:10.423Z,3.53
2023-04-16T09:50:18.662Z,3.43
2023-04-16T09:55:24.784Z,5.43
2023-04-16T10:00:30.649Z,4.90
2023-04-16T10:05:33.860Z,3.73
2023-04-16T10:10:36.964Z,4.00
2023-04-16T10:15:42.436Z,3.63
2023-04-16T10:20:46.358Z,4.27
2023-04-16T10:25:50.274Z,5.40
2023-04-16T10:30:56.846Z,4.47
2023-04-16T10:36:11.296Z,5.07
2023-04-16T10:41:14.939Z,4.00
2023-04-16T10:46:27.400Z,4.30
2023-04-16T10:51:33.478Z,3.37
2023-04-16T10:56:37.635Z,3.90
2023-04-16T11:01:45.611Z,4.53
2023-04-16T11:07:02.903Z,4.53
2023-04-16T11:12:12.915Z,4.07
2023-04-16T11:17:17.518Z,4.70
2023-04-16T11:22:20.571Z,4.30
2023-04-16T11:27:23.852Z,3.23
2023-04-16T11:32:28.297Z,3.47
2023-04-16T11:37:35.260Z,3.87
2023-04-16T11:42:40.565Z,3.40
2023-04-16T11:47:46.576Z,3.57
2023-04-16T11:52:51.219Z,3.53
2023-04-16T11:57:55.585Z,3.37
2023-04-16T12:03:00.058Z,2.97
2023-04-16T12:08:04.800Z,2.53
2023-04-16T12:13:13.437Z,2.90
2023-04-16T12:18:18.291Z,3.33
2023-04-16T12:23:26.603Z,3.47
2023-04-16T12:28:35.360Z,3.00
2023-04-16T12:33:39.994Z,2.90
2023-04-16T12:38:43.087Z,2.53
2023-04-16T12:43:46.213Z,3.57
2023-04-16T12:48:50.815Z,3.73
2023-04-16T12:53:54.059Z,3.00
2023-04-16T12:58:57.170Z,2.80
2023-04-16T13:04:01.861Z,2.90
2023-04-16T13:09:05.331Z,2.90
2023-04-16T13:14:08.495Z,2.90
2023-04-16T13:19:13.548Z,2.90
2023-04-16T13:24:16.752Z,2.57
2023-04-16T13:29:20.016Z,2.37
2023-04-16T13:34:24.445Z,2.73
2023-04-16T13:39:27.628Z,2.87
2023-04-16T13:44:30.805Z,2.63
2023-04-16T13:49:36.667Z,2.17
2023-04-16T13:54:40.458Z,2.47
2023-04-16T13:59:43.501Z,2.40
2023-04-16T14:04:47.962Z,2.50
2023-04-16T14:09:51.043Z,3.33
2023-04-16T14:14:54.108Z,2.30
2023-04-16T14:19:58.547Z,2.47
2023-04-16T14:25:03.094Z,2.90
2023-04-16T14:30:07.285Z,3.17
2023-04-16T14:35:11.984Z,3.20
2023-04-16T14:40:15.515Z,3.13
2023-04-16T14:45:19.084Z,2.40
2023-04-16T14:50:23.532Z,2.40
2023-04-16T14:55:27.163Z,2.60
2023-04-16T15:00:30.228Z,2.60
2023-04-16T15:05:35.853Z,2.20
2023-04-16T15:10:38.967Z,2.47
2023-04-16T15:15:42.125Z,1.97
2023-04-16T15:20:47.149Z,2.67
2023-04-16T15:25:50.237Z,2.30
2023-04-16T15:30:53.433Z,2.40
2023-04-16T15:35:57.935Z,3.20
2023-04-16T15:41:01.219Z,4.07
2023-04-16T15:46:04.420Z,3.40
2023-04-16T15:51:09.019Z,3.83
2023-04-16T15:56:12.333Z,3.80
2023-04-16T16:01:15.519Z,2.60
2023-04-16T16:06:20.943Z,2.43
2023-04-16T16:11:24.974Z,2.43
2023-04-16T16:16:28.695Z,2.77
2023-04-16T16:21:33.565Z,2.90
2023-04-16T16:26:36.767Z,3.73
2023-04-16T16:31:39.897Z,2.70
2023-04-16T16:36:46.947Z,2.60
2023-04-16T16:41:52.207Z,2.90
2023-04-16T16:46:55.450Z,2.53
2023-04-16T16:51:59.888Z,2.73
2023-04-16T16:57:03.432Z,3.00
2023-04-16T17:02:07.556Z,3.37
2023-04-16T17:07:12.140Z,2.67
2023-04-16T17:12:15.249Z,2.63
2023-04-16T17:17:18.467Z,3.20
2023-04-16T17:22:22.911Z,2.37
2023-04-16T17:27:26.755Z,2.73
2023-04-16T17:32:32.402Z,2.43
2023-04-16T17:37:37.844Z,3.63
2023-04-16T17:42:41.145Z,4.40
2023-04-16T17:47:44.785Z,4.23
2023-04-16T17:52:49.336Z,3.80
2023-04-16T17:57:52.437Z,4.30
2023-04-16T18:02:56.667Z,3.70
2023-04-16T18:08:01.513Z,5.40
2023-04-16T18:13:04.690Z,4.33
2023-04-16T18:18:08.084Z,3.90
2023-04-16T18:23:12.605Z,2.80
2023-04-16T18:28:15.931Z,1.93
2023-04-16T18:33:48.854Z,2.17
2023-04-16T18:38:57.028Z,1.90
2023-04-16T18:44:03.820Z,1.67
2023-04-16T18:49:06.899Z,1.50
2023-04-16T18:54:11.374Z,1.80
2023-04-16T18:59:14.448Z,2.07
2023-04-16T19:04:17.684Z,2.13
2023-04-16T19:09:22.207Z,2.00
2023-04-16T19:14:25.287Z,1.80
2023-04-16T19:19:28.341Z,2.27
2023-04-16T19:24:34.228Z,2.00
2023-04-16T19:29:37.504Z,3.00
2023-04-16T19:34:40.553Z,2.93
2023-04-16T19:39:45.004Z,2.40
2023-04-16T19:44:48.135Z,3.37
2023-04-16T19:49:51.244Z,3.33
2023-04-16T19:54:55.695Z,2.53
2023-04-16T19:59:58.837Z,2.77
2023-04-16T20:05:02.435Z,3.63
2023-04-16T20:10:07.889Z,2.53
2023-04-16T20:15:11.523Z,3.03
2023-04-16T20:20:15.878Z,3.17
2023-04-16T20:25:21.443Z,5.17
2023-04-16T20:30:29.035Z,2.70
2023-04-16T20:35:32.209Z,3.40
2023-04-16T20:40:38.756Z,3.07
2023-04-16T20:45:45.833Z,3.47
2023-04-16T20:50:49.157Z,2.70
2023-04-16T20:55:53.612Z,3.80
2023-04-16T21:00:57.878Z,3.70
2023-04-16T21:06:01.713Z,3.30
2023-04-16T21:11:06.294Z,3.37
2023-04-16T21:16:12.219Z,3.23
2023-04-16T21:21:15.657Z,3.57
2023-04-16T21:26:20.148Z,3.57
2023-04-16T21:31:23.273Z,3.23
2023-04-16T21:36:27.648Z,3.73
2023-04-16T21:41:32.081Z,3.30
2023-04-16T21:46:35.381Z,4.40
2023-04-16T21:51:40.396Z,2.97
2023-04-16T21:56:45.264Z,3.23
2023-04-16T22:01:48.312Z,2.63
2023-04-16T22:06:55.724Z,3.33
2023-04-16T22:12:00.497Z,2.57
2023-04-16T22:17:04.351Z,2.30
2023-04-16T22:22:07.440Z,1.83
2023-04-16T22:27:11.917Z,2.47
2023-04-16T22:32:15.447Z,2.87
2023-04-16T22:37:18.668Z,2.57
2023-04-16T22:42:24.174Z,2.53
2023-04-16T22:47:27.371Z,2.90
2023-04-16T22:52:30.480Z,2.73
2023-04-16T22:57:35.064Z,2.40
2023-04-16T23:02:38.516Z,2.97
2023-04-16T23:07:41.764Z,1.93
2023-04-16T23:12:46.369Z,2.50
2023-04-16T23:17:49.505Z,3.30
2023-04-16T23:22:53.944Z,2.13
2023-04-16T23:27:58.517Z,3.13
2023-04-16T23:33:02.904Z,2.83
2023-04-16T23:38:06.070Z,2.63
2023-04-16T23:43:10.891Z,3.50
2023-04-16T23:48:13.985Z,2.30
2023-04-16T23:53:17.272Z,2.10
2023-04-16T23:58:21.704Z,2.30
